createdAt,value
2023-03-31T00:02:03.951Z,612.00
2023-03-31T00:06:04.360Z,610.00
2023-03-31T00:10:17.306Z,609.00
2023-03-31T00:14:04.963Z,608.00
2023-03-31T00:18:03.990Z,602.00
2023-03-31T00:22:04.005Z,606.00
2023-03-31T00:26:04.170Z,599.00
2023-03-31T00:30:03.825Z,599.00
2023-03-31T00:34:03.781Z,598.00
2023-03-31T00:38:03.748Z,592.00
2023-03-31T00:42:03.819Z,594.00
2023-03-31T00:46:04.170Z,594.00
2023-03-31T00:50:03.939Z,587.00
2023-03-31T00:54:03.963Z,587.00
2023-03-31T00:58:04.105Z,582.00
2023-03-31T01:02:04.119Z,584.00
2023-03-31T01:06:04.347Z,578.00
2023-03-31T01:10:04.217Z,578.00
2023-03-31T01:14:04.343Z,577.00
2023-03-31T01:18:04.490Z,573.00
2023-03-31T01:22:04.514Z,572.00
2023-03-31T01:26:04.836Z,570.00
2023-03-31T01:30:04.628Z,574.00
2023-03-31T01:34:04.652Z,563.00
2023-03-31T01:38:04.732Z,564.00
2023-03-31T01:42:04.776Z,563.00
2023-03-31T01:46:05.096Z,557.00
2023-03-31T01:50:04.959Z,559.00
2023-03-31T01:54:04.951Z,559.00
2023-03-31T01:58:05.043Z,557.00
2023-03-31T02:02:05.143Z,552.00
2023-03-31T02:06:05.389Z,550.00
2023-03-31T02:10:05.242Z,554.00
2023-03-31T02:14:05.364Z,548.00
2023-03-31T02:18:05.448Z,543.00
2023-03-31T02:22:05.532Z,547.00
2023-03-31T02:26:05.743Z,543.00
2023-03-31T02:30:05.674Z,544.00
2023-03-31T02:34:05.796Z,540.00
2023-03-31T02:38:05.914Z,538.00
2023-03-31T02:42:06.019Z,537.00
2023-03-31T02:46:06.276Z,535.00
2023-03-31T02:50:06.205Z,526.00
2023-03-31T02:54:06.326Z,533.00
2023-03-31T02:58:06.388Z,531.00
2023-03-31T03:02:06.473Z,524.00
2023-03-31T03:06:06.864Z,526.00
2023-03-31T03:10:06.633Z,523.00
2023-03-31T03:14:06.802Z,518.00
2023-03-31T03:18:06.876Z,520.00
2023-03-31T03:22:08.811Z,518.00
2023-03-31T03:26:07.239Z,515.00
2023-03-31T03:30:07.278Z,515.00
2023-03-31T03:34:07.394Z,511.00
2023-03-31T03:38:07.499Z,511.00
2023-03-31T03:42:07.580Z,514.00
2023-03-31T03:46:07.851Z,508.00
2023-03-31T03:50:07.810Z,511.00
2023-03-31T03:54:07.954Z,510.00
2023-03-31T03:58:08.056Z,504.00
2023-03-31T04:02:08.242Z,502.00
2023-03-31T04:06:08.620Z,505.00
2023-03-31T04:10:08.428Z,507.00
2023-03-31T04:14:08.555Z,502.00
2023-03-31T04:18:08.771Z,502.00
2023-03-31T04:22:08.812Z,505.00
2023-03-31T04:26:08.985Z,504.00
2023-03-31T04:30:09.021Z,507.00
2023-03-31T04:34:09.156Z,506.00
2023-03-31T04:38:09.310Z,502.00
2023-03-31T04:42:09.404Z,503.00
2023-03-31T04:46:09.814Z,507.00
2023-03-31T04:50:12.677Z,500.00
2023-03-31T04:54:10.634Z,502.00
2023-03-31T04:58:09.551Z,505.00
2023-03-31T05:02:09.540Z,505.00
2023-03-31T05:06:09.551Z,509.00
2023-03-31T05:10:09.667Z,511.00
2023-03-31T05:14:09.811Z,509.00
2023-03-31T05:18:09.933Z,510.00
2023-03-31T05:22:10.080Z,510.00
2023-03-31T05:26:10.161Z,509.00
2023-03-31T05:30:10.317Z,512.00
2023-03-31T05:34:10.455Z,521.00
2023-03-31T05:38:11.003Z,563.00
2023-03-31T05:42:10.652Z,582.00
2023-03-31T05:46:11.477Z,587.00
2023-03-31T05:50:13.322Z,642.00
2023-03-31T05:54:11.065Z,772.00
2023-03-31T05:58:10.996Z,827.00
2023-03-31T06:02:10.702Z,833.00
2023-03-31T06:06:11.039Z,887.00
2023-03-31T06:10:10.699Z,809.00
2023-03-31T06:14:10.591Z,859.00
2023-03-31T06:18:10.593Z,861.00
2023-03-31T06:22:10.482Z,768.00
2023-03-31T06:26:10.441Z,783.00
2023-03-31T06:30:10.397Z,825.00
2023-03-31T06:34:10.345Z,738.00
2023-03-31T06:38:10.785Z,759.00
2023-03-31T06:42:10.393Z,755.00
2023-03-31T06:46:10.790Z,772.00
2023-03-31T06:50:10.547Z,680.00
2023-03-31T06:54:10.549Z,758.00
2023-03-31T06:58:10.202Z,847.00
2023-03-31T07:02:10.206Z,962.00
2023-03-31T07:06:10.129Z,1312.00
2023-03-31T07:10:10.089Z,1244.00
2023-03-31T07:14:10.030Z,1253.00
2023-03-31T07:18:10.032Z,1298.00
2023-03-31T07:22:10.070Z,1406.00
2023-03-31T07:26:09.922Z,1430.00
2023-03-31T07:30:09.982Z,1465.00
2023-03-31T07:34:10.126Z,1513.00
2023-03-31T07:38:10.206Z,1583.00
2023-03-31T07:42:10.602Z,1469.00
2023-03-31T07:46:10.862Z,1187.00
2023-03-31T07:50:10.648Z,964.00
2023-03-31T07:54:10.596Z,928.00
2023-03-31T07:58:10.550Z,831.00
2023-03-31T08:02:10.537Z,787.00
2023-03-31T08:06:10.576Z,788.00
2023-03-31T08:10:10.420Z,814.00
2023-03-31T08:14:10.597Z,717.00
2023-03-31T08:18:10.365Z,664.00
2023-03-31T08:22:10.321Z,663.00
2023-03-31T08:26:10.303Z,664.00
2023-03-31T08:30:10.249Z,650.00
2023-03-31T08:34:10.215Z,642.00
2023-03-31T08:38:10.591Z,741.00
2023-03-31T08:42:13.280Z,916.00
2023-03-31T08:46:10.498Z,931.00
2023-03-31T08:50:10.060Z,952.00
2023-03-31T08:54:10.768Z,1027.00
2023-03-31T08:58:10.016Z,1060.00
2023-03-31T09:02:10.052Z,1113.00
2023-03-31T09:06:10.156Z,1134.00
2023-03-31T09:10:10.632Z,1159.00
2023-03-31T09:14:10.090Z,1199.00
2023-03-31T09:18:10.134Z,1200.00
2023-03-31T09:22:10.002Z,1218.00
2023-03-31T09:26:09.957Z,1233.00
2023-03-31T09:30:10.118Z,1249.00
2023-03-31T09:34:09.897Z,1282.00
2023-03-31T09:38:09.849Z,1294.00
2023-03-31T09:42:10.127Z,1298.00
2023-03-31T09:46:10.313Z,1336.00
2023-03-31T09:50:10.155Z,1253.00
2023-03-31T09:54:10.126Z,924.00
2023-03-31T09:58:10.669Z,717.00
2023-03-31T10:02:10.152Z,631.00
2023-03-31T10:06:09.760Z,617.00
2023-03-31T10:10:10.160Z,575.00
2023-03-31T10:14:09.658Z,561.00
2023-03-31T10:18:09.653Z,540.00
2023-03-31T10:22:09.607Z,740.00
2023-03-31T10:26:09.666Z,679.00
2023-03-31T10:30:09.668Z,763.00
2023-03-31T10:34:09.790Z,728.00
2023-03-31T10:38:10.164Z,733.00
2023-03-31T10:42:10.159Z,623.00
2023-03-31T10:46:10.418Z,616.00
2023-03-31T10:50:10.568Z,607.00
2023-03-31T10:54:10.611Z,582.00
2023-03-31T10:58:10.724Z,603.00
2023-03-31T11:02:10.966Z,628.00
2023-03-31T11:06:10.933Z,650.00
2023-03-31T11:10:10.818Z,713.00
2023-03-31T11:14:10.818Z,857.00
2023-03-31T11:18:10.832Z,835.00
2023-03-31T11:22:11.169Z,925.00
2023-03-31T11:26:11.179Z,970.00
2023-03-31T11:30:10.684Z,1085.00
2023-03-31T11:34:10.696Z,1080.00
2023-03-31T11:38:10.693Z,1040.00
2023-03-31T11:42:10.549Z,1003.00
2023-03-31T11:46:10.867Z,789.00
2023-03-31T11:50:10.490Z,732.00
2023-03-31T11:54:10.450Z,729.00
2023-03-31T11:58:10.405Z,771.00
2023-03-31T12:02:10.391Z,721.00
2023-03-31T12:06:10.762Z,658.00
2023-03-31T12:10:12.263Z,500.00
2023-03-31T12:11:12.235Z,500.00
2023-03-31T12:12:12.278Z,500.00
2023-03-31T12:13:12.312Z,500.00
2023-03-31T12:14:12.233Z,500.00
2023-03-31T12:15:12.218Z,501.00
2023-03-31T12:16:12.267Z,507.00
2023-03-31T12:17:12.237Z,507.00
2023-03-31T12:18:12.205Z,500.00
2023-03-31T12:19:12.192Z,500.00
2023-03-31T12:20:12.272Z,504.00
2023-03-31T12:21:12.215Z,500.00
2023-03-31T12:22:12.170Z,504.00
2023-03-31T12:23:12.192Z,500.00
2023-03-31T12:24:12.140Z,500.00
2023-03-31T12:25:12.146Z,500.00
2023-03-31T12:26:12.171Z,501.00
2023-03-31T12:27:12.180Z,505.00
2023-03-31T12:28:12.131Z,500.00
2023-03-31T12:29:12.170Z,500.00
2023-03-31T12:30:12.116Z,504.00
2023-03-31T12:31:12.142Z,500.00
2023-03-31T12:32:12.092Z,505.00
2023-03-31T12:33:12.153Z,507.00
2023-03-31T12:34:12.086Z,503.00
2023-03-31T12:35:12.061Z,504.00
2023-03-31T12:36:12.198Z,507.00
2023-03-31T12:37:12.070Z,536.00
2023-03-31T12:38:12.095Z,524.00
2023-03-31T12:39:12.064Z,522.00
2023-03-31T12:40:12.133Z,505.00
2023-03-31T12:41:12.061Z,500.00
2023-03-31T12:42:12.027Z,505.00
2023-03-31T12:43:12.020Z,500.00
2023-03-31T12:44:12.017Z,499.00
2023-03-31T12:45:12.004Z,506.00
2023-03-31T12:46:12.041Z,506.00
2023-03-31T12:47:11.986Z,501.00
2023-03-31T12:48:12.060Z,511.00
2023-03-31T12:49:12.015Z,501.00
2023-03-31T12:50:12.040Z,506.00
2023-03-31T12:51:11.965Z,510.00
2023-03-31T12:52:11.962Z,508.00
2023-03-31T12:53:11.971Z,503.00
2023-03-31T12:54:11.961Z,506.00
2023-03-31T12:55:11.960Z,514.00
2023-03-31T12:56:11.945Z,520.00
2023-03-31T12:57:11.970Z,527.00
2023-03-31T12:58:11.974Z,539.00
2023-03-31T12:59:11.945Z,537.00
2023-03-31T13:00:12.176Z,545.00
2023-03-31T13:01:12.336Z,534.00
2023-03-31T13:02:12.163Z,522.00
2023-03-31T13:03:12.108Z,515.00
2023-03-31T13:04:12.153Z,517.00
2023-03-31T13:05:12.148Z,513.00
2023-03-31T13:06:12.237Z,517.00
2023-03-31T13:07:25.329Z,511.00
2023-03-31T13:08:13.224Z,507.00
2023-03-31T13:09:12.242Z,492.00
2023-03-31T13:10:12.693Z,472.00
2023-03-31T13:11:12.248Z,446.00
2023-03-31T13:12:12.219Z,420.00
2023-03-31T13:13:12.205Z,450.00
2023-03-31T13:14:12.170Z,466.00
2023-03-31T13:15:12.221Z,500.00
2023-03-31T13:16:12.216Z,501.00
2023-03-31T13:17:12.216Z,501.00
2023-03-31T13:18:12.178Z,504.00
2023-03-31T13:19:12.182Z,500.00
2023-03-31T13:20:12.248Z,500.00
2023-03-31T13:21:12.313Z,500.00
2023-03-31T13:22:12.311Z,501.00
2023-03-31T13:23:12.364Z,503.00
2023-03-31T13:24:12.375Z,508.00
2023-03-31T13:25:12.395Z,500.00
2023-03-31T13:26:12.764Z,500.00
2023-03-31T13:27:12.416Z,509.00
2023-03-31T13:28:12.395Z,504.00
2023-03-31T13:29:12.413Z,502.00
2023-03-31T13:30:12.407Z,500.00
2023-03-31T13:31:12.401Z,505.00
2023-03-31T13:32:12.480Z,500.00
2023-03-31T13:33:12.438Z,500.00
2023-03-31T13:34:12.418Z,501.00
2023-03-31T13:35:12.403Z,515.00
2023-03-31T13:36:12.429Z,504.00
2023-03-31T13:37:12.462Z,500.00
2023-03-31T13:38:12.427Z,501.00
2023-03-31T13:39:12.950Z,499.00
2023-03-31T13:40:12.498Z,515.00
2023-03-31T13:41:12.530Z,566.00
2023-03-31T13:42:12.524Z,657.00
2023-03-31T13:43:12.560Z,585.00
2023-03-31T13:44:12.656Z,536.00
2023-03-31T13:45:12.689Z,530.00
2023-03-31T13:46:13.095Z,503.00
2023-03-31T13:47:12.848Z,508.00
2023-03-31T13:48:12.919Z,519.00
2023-03-31T13:49:12.928Z,539.00
2023-03-31T13:50:13.015Z,557.00
2023-03-31T13:51:13.041Z,582.00
2023-03-31T13:52:13.125Z,614.00
2023-03-31T13:53:13.132Z,640.00
2023-03-31T13:54:13.195Z,803.00
2023-03-31T13:55:15.015Z,913.00
2023-03-31T13:56:13.211Z,1047.00
2023-03-31T13:57:13.260Z,1081.00
2023-03-31T13:58:25.496Z,1225.00
2023-03-31T13:59:14.160Z,1232.00
2023-03-31T14:00:13.188Z,1252.00
2023-03-31T14:01:13.182Z,1312.00
2023-03-31T14:02:13.139Z,1402.00
2023-03-31T14:03:13.294Z,1574.00
2023-03-31T14:04:13.131Z,1655.00
2023-03-31T14:05:13.174Z,1742.00
2023-03-31T14:06:13.126Z,1826.00
2023-03-31T14:07:13.124Z,1850.00
2023-03-31T14:08:13.094Z,1880.00
2023-03-31T14:09:13.107Z,1921.00
2023-03-31T14:10:13.096Z,1955.00
2023-03-31T14:11:13.079Z,1966.00
2023-03-31T14:12:13.085Z,1980.00
2023-03-31T14:13:13.051Z,1995.00
2023-03-31T14:14:13.075Z,2011.00
2023-03-31T14:15:13.065Z,1993.00
2023-03-31T14:16:13.345Z,2027.00
2023-03-31T14:17:13.043Z,2060.00
2023-03-31T14:18:13.058Z,2075.00
2023-03-31T14:19:13.009Z,2100.00
2023-03-31T14:20:13.018Z,2109.00
2023-03-31T14:21:13.289Z,2113.00
2023-03-31T14:22:12.984Z,2090.00
2023-03-31T14:23:13.010Z,2105.00
2023-03-31T14:24:13.024Z,2091.00
2023-03-31T14:25:12.985Z,2076.00
2023-03-31T14:26:12.993Z,2041.00
2023-03-31T14:27:12.989Z,2024.00
2023-03-31T14:28:12.974Z,2022.00
2023-03-31T14:29:13.003Z,2006.00
2023-03-31T14:30:13.019Z,2003.00
2023-03-31T14:31:13.546Z,1999.00
2023-03-31T14:32:13.059Z,1986.00
2023-03-31T14:33:13.083Z,1972.00
2023-03-31T14:34:13.111Z,1980.00
2023-03-31T14:35:13.200Z,1972.00
2023-03-31T14:36:13.189Z,1961.00
2023-03-31T14:37:13.251Z,1974.00
2023-03-31T14:38:13.224Z,1961.00
2023-03-31T14:39:13.258Z,1964.00
2023-03-31T14:40:13.261Z,1946.00
2023-03-31T14:41:13.329Z,1948.00
2023-03-31T14:42:13.319Z,1960.00
2023-03-31T14:43:13.376Z,1950.00
2023-03-31T14:44:13.416Z,1948.00
2023-03-31T14:45:13.439Z,1946.00
2023-03-31T14:46:13.517Z,1945.00
2023-03-31T14:47:13.530Z,1949.00
2023-03-31T14:48:13.676Z,1935.00
2023-03-31T14:49:13.652Z,1938.00
2023-03-31T14:50:13.656Z,1935.00
2023-03-31T14:51:13.699Z,1917.00
2023-03-31T14:52:13.754Z,1925.00
2023-03-31T14:53:13.835Z,1920.00
2023-03-31T14:54:13.943Z,1911.00
2023-03-31T14:55:13.953Z,1907.00
2023-03-31T14:56:14.002Z,1917.00
2023-03-31T14:57:14.123Z,1915.00
2023-03-31T14:58:14.116Z,1919.00
2023-03-31T14:59:14.156Z,1919.00
2023-03-31T15:00:14.220Z,1905.00
2023-03-31T15:01:14.361Z,1893.00
2023-03-31T15:02:14.358Z,1901.00
2023-03-31T15:03:14.436Z,1899.00
2023-03-31T15:04:14.437Z,1890.00
2023-03-31T15:05:14.584Z,1884.00
2023-03-31T15:06:14.581Z,1885.00
2023-03-31T15:07:14.678Z,1879.00
2023-03-31T15:08:14.708Z,1878.00
2023-03-31T15:09:14.788Z,1874.00
2023-03-31T15:10:14.845Z,1864.00
2023-03-31T15:11:16.532Z,1869.00
2023-03-31T15:12:14.900Z,1865.00
2023-03-31T15:13:14.886Z,1869.00
2023-03-31T15:14:14.857Z,1853.00
2023-03-31T15:15:14.856Z,1843.00
2023-03-31T15:16:14.884Z,1857.00
2023-03-31T15:17:14.880Z,1844.00
2023-03-31T15:18:14.889Z,1837.00
2023-03-31T15:19:14.856Z,1851.00
2023-03-31T15:20:15.506Z,1824.00
2023-03-31T15:21:14.818Z,1839.00
2023-03-31T15:22:14.915Z,1829.00
2023-03-31T15:23:14.825Z,1831.00
2023-03-31T15:24:14.814Z,1821.00
2023-03-31T15:25:14.815Z,1827.00
2023-03-31T15:26:14.791Z,1824.00
2023-03-31T15:27:18.085Z,1809.00
2023-03-31T15:28:15.804Z,1811.00
2023-03-31T15:29:14.806Z,1812.00
2023-03-31T15:30:14.797Z,1807.00
2023-03-31T15:31:14.856Z,1808.00
2023-03-31T15:32:14.842Z,1809.00
2023-03-31T15:33:19.526Z,1787.00
2023-03-31T15:34:15.787Z,1788.00
2023-03-31T15:35:21.834Z,1790.00
2023-03-31T15:36:15.737Z,1788.00
2023-03-31T15:37:14.722Z,1790.00
2023-03-31T15:38:14.736Z,1792.00
2023-03-31T15:39:14.705Z,1793.00
2023-03-31T15:40:14.700Z,1798.00
2023-03-31T15:41:14.697Z,1788.00
2023-03-31T15:42:14.698Z,1787.00
2023-03-31T15:44:15.651Z,1787.00
2023-03-31T15:45:14.693Z,1788.00
2023-03-31T15:46:14.675Z,1786.00
2023-03-31T15:47:14.699Z,1782.00
2023-03-31T15:48:14.630Z,1775.00
2023-03-31T15:49:14.646Z,1753.00
2023-03-31T15:50:14.609Z,1765.00
2023-03-31T15:51:14.610Z,1782.00
2023-03-31T15:52:14.620Z,1777.00
2023-03-31T15:53:14.593Z,1764.00
2023-03-31T15:54:14.623Z,1767.00
2023-03-31T15:55:14.697Z,1755.00
2023-03-31T15:56:14.779Z,1735.00
2023-03-31T15:57:14.833Z,1748.00
2023-03-31T15:58:14.895Z,1760.00
2023-03-31T15:59:14.956Z,1736.00
2023-03-31T16:00:15.002Z,1734.00
2023-03-31T16:01:15.058Z,1735.00
2023-03-31T16:02:15.116Z,1736.00
2023-03-31T16:03:15.189Z,1746.00
2023-03-31T16:04:15.213Z,1732.00
2023-03-31T16:05:26.544Z,1718.00
2023-03-31T16:06:16.277Z,1719.00
2023-03-31T16:07:15.266Z,1721.00
2023-03-31T16:08:15.261Z,1724.00
2023-03-31T16:09:15.254Z,1732.00
2023-03-31T16:10:15.251Z,1749.00
2023-03-31T16:11:15.206Z,1734.00
2023-03-31T16:12:15.188Z,1735.00
2023-03-31T16:13:15.234Z,1732.00
2023-03-31T16:14:15.213Z,1727.00
2023-03-31T16:15:15.212Z,1727.00
2023-03-31T16:16:15.304Z,1734.00
2023-03-31T16:17:15.323Z,1731.00
2023-03-31T16:18:15.387Z,1723.00
2023-03-31T16:19:15.522Z,1735.00
2023-03-31T16:20:15.532Z,1720.00
2023-03-31T16:21:15.602Z,1705.00
2023-03-31T16:22:15.630Z,1721.00
2023-03-31T16:23:15.724Z,1714.00
2023-03-31T16:24:15.765Z,1724.00
2023-03-31T16:25:15.825Z,1730.00
2023-03-31T16:26:15.904Z,1729.00
2023-03-31T16:27:15.936Z,1731.00
2023-03-31T16:28:16.008Z,1714.00
2023-03-31T16:29:16.049Z,1731.00
2023-03-31T16:30:16.149Z,1722.00
2023-03-31T16:31:16.218Z,1713.00
2023-03-31T16:32:16.262Z,1723.00
2023-03-31T16:33:16.310Z,1723.00
2023-03-31T16:34:16.371Z,1724.00
2023-03-31T16:35:16.443Z,1720.00
2023-03-31T16:36:16.496Z,1726.00
2023-03-31T16:37:16.574Z,1711.00
2023-03-31T16:38:16.658Z,1718.00
2023-03-31T16:39:16.660Z,1709.00
2023-03-31T16:40:16.761Z,1700.00
2023-03-31T16:41:16.822Z,1708.00
2023-03-31T16:42:16.884Z,1710.00
2023-03-31T16:43:16.974Z,1693.00
2023-03-31T16:44:16.984Z,1709.00
2023-03-31T16:45:17.043Z,1711.00
2023-03-31T16:46:17.137Z,1713.00
2023-03-31T16:47:27.687Z,1708.00
2023-03-31T16:48:18.146Z,1709.00
2023-03-31T16:49:17.145Z,1709.00
2023-03-31T16:50:17.144Z,1714.00
2023-03-31T16:51:17.117Z,1704.00
2023-03-31T16:52:17.121Z,1699.00
2023-03-31T16:53:17.383Z,1703.00
2023-03-31T16:54:17.100Z,1697.00
2023-03-31T16:55:17.111Z,1690.00
2023-03-31T16:56:17.116Z,1702.00
2023-03-31T16:57:17.150Z,1693.00
2023-03-31T16:58:17.191Z,1701.00
2023-03-31T16:59:17.287Z,1684.00
2023-03-31T17:00:17.284Z,1686.00
2023-03-31T17:01:17.406Z,1689.00
2023-03-31T17:02:17.480Z,1692.00
2023-03-31T17:03:17.523Z,1680.00
2023-03-31T17:04:17.505Z,1696.00
2023-03-31T17:05:17.587Z,1688.00
2023-03-31T17:06:17.624Z,1678.00
2023-03-31T17:07:17.722Z,1677.00
2023-03-31T17:08:17.778Z,1677.00
2023-03-31T17:09:17.873Z,1686.00
2023-03-31T17:10:17.860Z,1671.00
2023-03-31T17:11:17.937Z,1665.00
2023-03-31T17:12:18.026Z,1672.00
2023-03-31T17:13:18.081Z,1670.00
2023-03-31T17:14:18.121Z,1662.00
2023-03-31T17:15:18.158Z,1660.00
2023-03-31T17:16:24.467Z,1655.00
2023-03-31T17:17:19.243Z,1655.00
2023-03-31T17:18:18.367Z,1657.00
2023-03-31T17:19:18.222Z,1655.00
2023-03-31T17:20:18.236Z,1656.00
2023-03-31T17:21:18.209Z,1663.00
2023-03-31T17:22:18.199Z,1648.00
2023-03-31T17:23:18.303Z,1659.00
2023-03-31T17:24:18.167Z,1649.00
2023-03-31T17:25:18.174Z,1632.00
2023-03-31T17:26:18.206Z,1656.00
2023-03-31T17:27:18.264Z,1639.00
2023-03-31T17:28:18.331Z,1645.00
2023-03-31T17:29:18.440Z,1633.00
2023-03-31T17:30:18.424Z,1638.00
2023-03-31T17:31:18.547Z,1631.00
2023-03-31T17:32:18.670Z,1627.00
2023-03-31T17:33:18.619Z,1629.00
2023-03-31T17:34:18.676Z,1629.00
2023-03-31T17:35:18.751Z,1623.00
2023-03-31T17:36:18.773Z,1625.00
2023-03-31T17:37:18.925Z,1615.00
2023-03-31T17:38:18.921Z,1623.00
2023-03-31T17:39:18.984Z,1609.00
2023-03-31T17:40:19.010Z,1618.00
2023-03-31T17:41:19.094Z,1610.00
2023-03-31T17:42:19.128Z,1607.00
2023-03-31T17:43:19.223Z,1612.00
2023-03-31T17:44:19.295Z,1613.00
2023-03-31T17:45:19.366Z,1613.00
2023-03-31T17:46:19.447Z,1611.00
2023-03-31T17:47:19.482Z,1596.00
2023-03-31T17:48:19.552Z,1597.00
2023-03-31T17:49:19.584Z,1588.00
2023-03-31T17:50:19.687Z,1603.00
2023-03-31T17:51:19.732Z,1596.00
2023-03-31T17:52:19.774Z,1598.00
2023-03-31T17:53:19.854Z,1592.00
2023-03-31T17:54:19.931Z,1579.00
2023-03-31T17:55:20.014Z,1588.00
2023-03-31T17:56:20.079Z,1585.00
2023-03-31T17:57:20.138Z,1585.00
2023-03-31T17:58:20.150Z,1578.00
2023-03-31T17:59:20.238Z,1579.00
2023-03-31T18:00:20.317Z,1563.00
2023-03-31T18:01:20.432Z,1572.00
2023-03-31T18:02:20.459Z,1566.00
2023-03-31T18:03:20.471Z,1570.00
2023-03-31T18:04:20.562Z,1572.00
2023-03-31T18:05:20.616Z,1562.00
2023-03-31T18:06:20.681Z,1565.00
2023-03-31T18:07:20.718Z,1562.00
2023-03-31T18:08:20.814Z,1570.00
2023-03-31T18:09:20.841Z,1567.00
2023-03-31T18:10:20.936Z,1548.00
2023-03-31T18:11:20.969Z,1567.00
2023-03-31T18:12:21.054Z,1553.00
2023-03-31T18:13:21.125Z,1551.00
2023-03-31T18:14:21.169Z,1552.00
2023-03-31T18:15:21.192Z,1549.00
2023-03-31T18:16:21.310Z,1538.00
2023-03-31T18:17:21.371Z,1546.00
2023-03-31T18:18:21.444Z,1541.00
2023-03-31T18:19:21.468Z,1555.00
2023-03-31T18:20:21.567Z,1539.00
2023-03-31T18:21:21.566Z,1528.00
2023-03-31T18:22:21.650Z,1537.00
2023-03-31T18:23:21.723Z,1543.00
2023-03-31T18:24:21.808Z,1524.00
2023-03-31T18:25:21.955Z,1518.00
2023-03-31T18:26:21.894Z,1541.00
2023-03-31T18:27:23.260Z,1532.00
2023-03-31T18:28:21.925Z,1536.00
2023-03-31T18:29:21.941Z,1542.00
2023-03-31T18:30:21.906Z,1535.00
2023-03-31T18:31:21.957Z,1535.00
2023-03-31T18:32:21.973Z,1523.00
2023-03-31T18:33:22.104Z,1516.00
2023-03-31T18:34:21.949Z,1514.00
2023-03-31T18:35:21.917Z,1515.00
2023-03-31T18:36:22.020Z,1514.00
2023-03-31T18:37:21.880Z,1509.00
2023-03-31T18:38:21.898Z,1509.00
2023-03-31T18:39:21.871Z,1504.00
2023-03-31T18:40:21.869Z,1509.00
2023-03-31T18:41:21.875Z,1507.00
2023-03-31T18:42:21.861Z,1505.00
2023-03-31T18:43:21.858Z,1502.00
2023-03-31T18:44:21.839Z,1494.00
2023-03-31T18:45:21.857Z,1498.00
2023-03-31T18:46:21.937Z,1492.00
2023-03-31T18:47:21.825Z,1501.00
2023-03-31T18:48:21.810Z,1500.00
2023-03-31T18:49:21.833Z,1488.00
2023-03-31T18:50:21.826Z,1490.00
2023-03-31T18:51:21.813Z,1480.00
2023-03-31T18:52:21.788Z,1484.00
2023-03-31T18:53:21.792Z,1483.00
2023-03-31T18:54:21.811Z,1482.00
2023-03-31T18:55:21.814Z,1484.00
2023-03-31T18:56:21.749Z,1480.00
2023-03-31T18:57:21.813Z,1467.00
2023-03-31T18:58:21.760Z,1478.00
2023-03-31T18:59:21.779Z,1473.00
2023-03-31T19:00:21.736Z,1469.00
2023-03-31T19:01:21.797Z,1470.00
2023-03-31T19:02:21.745Z,1464.00
2023-03-31T19:03:21.797Z,1471.00
2023-03-31T19:04:21.773Z,1471.00
2023-03-31T19:05:21.820Z,1459.00
2023-03-31T19:06:21.861Z,1466.00
2023-03-31T19:07:21.897Z,1464.00
2023-03-31T19:08:21.946Z,1450.00
2023-03-31T19:09:21.966Z,1455.00
2023-03-31T19:10:22.043Z,1457.00
2023-03-31T19:11:22.069Z,1453.00
2023-03-31T19:12:22.130Z,1457.00
2023-03-31T19:13:22.172Z,1457.00
2023-03-31T19:14:22.269Z,1439.00
2023-03-31T19:15:22.252Z,1437.00
2023-03-31T19:16:22.304Z,1450.00
2023-03-31T19:17:23.090Z,1430.00
2023-03-31T19:18:22.384Z,1440.00
2023-03-31T19:19:22.451Z,1441.00
2023-03-31T19:20:22.488Z,1436.00
2023-03-31T19:21:22.493Z,1427.00
2023-03-31T19:22:22.515Z,1428.00
2023-03-31T19:23:22.548Z,1432.00
2023-03-31T19:24:22.599Z,1431.00
2023-03-31T19:25:22.654Z,1426.00
2023-03-31T19:26:22.745Z,1424.00
2023-03-31T19:27:22.705Z,1418.00
2023-03-31T19:28:22.755Z,1415.00
2023-03-31T19:29:22.796Z,1414.00
2023-03-31T19:30:22.834Z,1416.00
2023-03-31T19:31:22.902Z,1420.00
2023-03-31T19:32:22.901Z,1417.00
2023-03-31T19:33:22.944Z,1405.00
2023-03-31T19:34:22.977Z,1417.00
2023-03-31T19:35:22.971Z,1414.00
2023-03-31T19:36:23.029Z,1411.00
2023-03-31T19:37:23.038Z,1408.00
2023-03-31T19:38:23.062Z,1405.00
2023-03-31T19:39:23.095Z,1407.00
2023-03-31T19:40:23.135Z,1396.00
2023-03-31T19:41:23.143Z,1411.00
2023-03-31T19:42:23.173Z,1406.00
2023-03-31T19:43:23.281Z,1400.00
2023-03-31T19:44:23.252Z,1395.00
2023-03-31T19:45:23.276Z,1399.00
2023-03-31T19:46:23.368Z,1396.00
2023-03-31T19:47:23.358Z,1392.00
2023-03-31T19:48:23.317Z,1393.00
2023-03-31T19:49:23.342Z,1389.00
2023-03-31T19:50:23.343Z,1389.00
2023-03-31T19:51:23.366Z,1386.00
2023-03-31T19:52:23.362Z,1381.00
2023-03-31T19:53:23.418Z,1384.00
2023-03-31T19:54:23.458Z,1388.00
2023-03-31T19:55:23.449Z,1378.00
2023-03-31T19:56:23.464Z,1378.00
2023-03-31T19:57:23.538Z,1364.00
2023-03-31T19:58:23.508Z,1372.00
2023-03-31T19:59:23.561Z,1368.00
2023-03-31T20:00:23.610Z,1372.00
2023-03-31T20:01:23.789Z,1361.00
2023-03-31T20:02:23.867Z,1358.00
2023-03-31T20:03:24.096Z,1356.00
2023-03-31T20:04:23.900Z,1371.00
2023-03-31T20:05:23.807Z,1362.00
2023-03-31T20:06:23.846Z,1363.00
2023-03-31T20:07:23.871Z,1352.00
2023-03-31T20:08:23.878Z,1351.00
2023-03-31T20:09:23.955Z,1356.00
2023-03-31T20:10:24.060Z,1359.00
2023-03-31T20:11:24.128Z,1347.00
2023-03-31T20:12:24.068Z,1350.00
2023-03-31T20:13:24.052Z,1343.00
2023-03-31T20:14:24.099Z,1350.00
2023-03-31T20:15:24.110Z,1355.00
2023-03-31T20:16:24.137Z,1342.00
2023-03-31T20:17:24.154Z,1331.00
2023-03-31T20:18:24.181Z,1328.00
2023-03-31T20:19:24.193Z,1342.00
2023-03-31T20:20:24.210Z,1338.00
2023-03-31T20:21:24.273Z,1327.00
2023-03-31T20:22:24.337Z,1340.00
2023-03-31T20:23:24.334Z,1324.00
2023-03-31T20:24:24.367Z,1329.00
2023-03-31T20:25:24.394Z,1333.00
2023-03-31T20:26:24.380Z,1328.00
2023-03-31T20:27:24.389Z,1325.00
2023-03-31T20:28:24.513Z,1321.00
2023-03-31T20:29:24.376Z,1322.00
2023-03-31T20:30:24.426Z,1318.00
2023-03-31T20:31:24.499Z,1314.00
2023-03-31T20:32:24.479Z,1319.00
2023-03-31T20:33:24.562Z,1313.00
2023-03-31T20:34:24.437Z,1308.00
2023-03-31T20:35:24.436Z,1320.00
2023-03-31T20:36:24.476Z,1313.00
2023-03-31T20:37:24.462Z,1301.00
2023-03-31T20:38:24.549Z,1303.00
2023-03-31T20:39:24.478Z,1305.00
2023-03-31T20:40:24.493Z,1309.00
2023-03-31T20:41:24.531Z,1295.00
2023-03-31T20:42:24.556Z,1302.00
2023-03-31T20:43:24.584Z,1299.00
2023-03-31T20:44:24.599Z,1304.00
2023-03-31T20:45:24.621Z,1305.00
2023-03-31T20:46:24.656Z,1291.00
2023-03-31T20:47:24.672Z,1280.00
2023-03-31T20:48:24.667Z,1288.00
2023-03-31T20:49:24.648Z,1290.00
2023-03-31T20:50:24.640Z,1280.00
2023-03-31T20:51:24.667Z,1281.00
2023-03-31T20:52:24.714Z,1269.00
2023-03-31T20:53:24.720Z,1263.00
2023-03-31T20:54:24.732Z,1285.00
2023-03-31T20:55:24.735Z,1273.00
2023-03-31T20:56:24.729Z,1276.00
2023-03-31T20:57:24.793Z,1266.00
2023-03-31T20:58:24.788Z,1265.00
2023-03-31T20:59:24.801Z,1268.00
2023-03-31T21:00:24.836Z,1271.00
2023-03-31T21:01:25.021Z,1276.00
2023-03-31T21:02:24.906Z,1278.00
2023-03-31T21:03:24.887Z,1256.00
2023-03-31T21:04:24.858Z,1247.00
2023-03-31T21:05:24.877Z,1259.00
2023-03-31T21:06:24.902Z,1246.00
2023-03-31T21:07:24.919Z,1245.00
2023-03-31T21:08:24.930Z,1250.00
2023-03-31T21:09:24.953Z,1249.00
2023-03-31T21:10:24.914Z,1243.00
2023-03-31T21:11:24.954Z,1237.00
2023-03-31T21:12:24.921Z,1239.00
2023-03-31T21:13:24.919Z,1246.00
2023-03-31T21:14:24.902Z,1251.00
2023-03-31T21:15:24.887Z,1249.00
2023-03-31T21:16:24.965Z,1244.00
2023-03-31T21:17:24.929Z,1238.00
2023-03-31T21:18:24.900Z,1240.00
2023-03-31T21:19:24.916Z,1235.00
2023-03-31T21:20:24.911Z,1237.00
2023-03-31T21:21:25.100Z,1231.00
2023-03-31T21:22:24.953Z,1229.00